createdAt,value
2023-06-06T00:00:59.288Z,2.10
2023-06-06T00:03:43.585Z,1.70
2023-06-06T00:06:17.230Z,1.80
2023-06-06T00:08:51.585Z,1.53
2023-06-06T00:11:25.351Z,1.40
2023-06-06T00:13:59.982Z,1.60
2023-06-06T00:16:34.450Z,2.00
2023-06-06T00:19:07.987Z,1.70
2023-06-06T00:21:42.540Z,1.63
2023-06-06T00:24:17.251Z,1.63
2023-06-06T00:26:50.575Z,1.53
2023-06-06T00:29:24.364Z,1.45
2023-06-06T00:31:57.946Z,1.90
2023-06-06T00:34:31.907Z,1.87
2023-06-06T00:37:05.996Z,1.80
2023-06-06T00:39:39.460Z,1.80
2023-06-06T00:42:13.594Z,1.80
2023-06-06T00:44:47.009Z,1.80
2023-06-06T00:47:20.955Z,1.50
2023-06-06T00:49:56.558Z,2.00
2023-06-06T00:52:32.386Z,1.80
2023-06-06T00:55:10.511Z,1.90
2023-06-06T00:57:46.622Z,1.80
2023-06-06T01:00:21.276Z,1.80
2023-06-06T01:02:55.039Z,1.80
2023-06-06T01:05:31.131Z,1.77
2023-06-06T01:08:06.257Z,1.90
2023-06-06T01:10:40.882Z,1.90
2023-06-06T01:13:23.910Z,2.23
2023-06-06T01:16:01.617Z,1.70
2023-06-06T01:18:36.391Z,1.97
2023-06-06T01:21:11.506Z,1.80
2023-06-06T01:23:47.056Z,2.10
2023-06-06T01:26:20.547Z,2.10
2023-06-06T01:28:54.110Z,1.90
2023-06-06T01:31:35.141Z,2.00
2023-06-06T01:34:17.890Z,2.03
2023-06-06T01:36:59.470Z,2.17
2023-06-06T01:39:36.272Z,2.00
2023-06-06T01:42:15.236Z,1.97
2023-06-06T01:44:53.325Z,1.90
2023-06-06T01:47:29.034Z,1.90
2023-06-06T01:50:04.848Z,1.90
2023-06-06T01:52:42.421Z,2.30
2023-06-06T01:55:18.163Z,1.73
2023-06-06T01:57:52.198Z,1.80
2023-06-06T02:00:27.961Z,2.07
2023-06-06T02:03:03.037Z,2.00
2023-06-06T02:05:37.195Z,1.90
2023-06-06T02:08:10.528Z,2.43
2023-06-06T02:10:44.791Z,2.10
2023-06-06T02:13:18.752Z,1.93
2023-06-06T02:15:53.110Z,2.10
2023-06-06T02:18:27.210Z,1.80
2023-06-06T02:21:00.788Z,2.57
2023-06-06T02:23:34.128Z,2.10
2023-06-06T02:26:07.978Z,1.90
2023-06-06T02:28:41.892Z,2.13
2023-06-06T02:31:18.348Z,1.93
2023-06-06T02:33:53.093Z,1.97
2023-06-06T02:36:26.922Z,1.93
2023-06-06T02:39:00.277Z,2.10
2023-06-06T02:41:35.061Z,2.13
2023-06-06T02:44:10.652Z,2.00
2023-06-06T02:46:44.737Z,2.50
2023-06-06T02:49:19.595Z,1.90
2023-06-06T02:51:53.698Z,2.33
2023-06-06T02:54:27.817Z,2.20
2023-06-06T02:57:02.277Z,2.40
2023-06-06T02:59:36.489Z,2.50
2023-06-06T03:02:12.119Z,2.80
2023-06-06T03:04:46.309Z,2.33
2023-06-06T03:07:19.696Z,2.20
2023-06-06T03:09:53.515Z,2.40
2023-06-06T03:12:31.549Z,2.50
2023-06-06T03:15:08.802Z,2.50
2023-06-06T03:17:46.136Z,2.07
2023-06-06T03:20:21.510Z,2.47
2023-06-06T03:23:02.281Z,2.13
2023-06-06T03:25:36.076Z,2.33
2023-06-06T03:28:09.601Z,2.20
2023-06-06T03:30:44.090Z,2.20
2023-06-06T03:33:18.367Z,2.40
2023-06-06T03:35:52.716Z,2.43
2023-06-06T03:38:26.376Z,2.67
2023-06-06T03:41:01.219Z,2.90
2023-06-06T03:43:35.771Z,2.30
2023-06-06T03:46:10.188Z,2.23
2023-06-06T03:48:45.037Z,2.67
2023-06-06T03:51:20.429Z,3.10
2023-06-06T03:53:53.611Z,2.40
2023-06-06T03:56:28.676Z,2.63
2023-06-06T03:59:02.828Z,3.17
2023-06-06T04:01:38.528Z,2.57
2023-06-06T04:04:16.821Z,2.63
2023-06-06T04:06:51.131Z,2.40
2023-06-06T04:09:25.016Z,2.57
2023-06-06T04:11:59.226Z,2.70
2023-06-06T04:14:33.327Z,2.50
2023-06-06T04:17:10.598Z,2.40
2023-06-06T04:19:44.260Z,2.33
2023-06-06T04:22:18.743Z,2.30
2023-06-06T04:24:52.530Z,2.03
2023-06-06T04:27:26.074Z,2.50
2023-06-06T04:30:02.833Z,2.47
2023-06-06T04:32:38.389Z,2.57
2023-06-06T04:35:13.723Z,3.07
2023-06-06T04:37:49.363Z,2.27
2023-06-06T04:40:24.592Z,2.23
2023-06-06T04:42:59.850Z,2.40
2023-06-06T04:45:33.700Z,2.33
2023-06-06T04:48:09.333Z,2.30
2023-06-06T04:50:45.181Z,2.13
2023-06-06T04:53:19.046Z,2.50
2023-06-06T04:55:55.207Z,2.13
2023-06-06T04:58:29.867Z,2.13
2023-06-06T05:01:04.285Z,2.27
2023-06-06T05:03:38.111Z,2.30
2023-06-06T05:06:13.016Z,2.40
2023-06-06T05:08:47.790Z,2.27
2023-06-06T05:11:22.450Z,2.30
2023-06-06T05:13:57.160Z,2.43
2023-06-06T05:16:30.483Z,2.63
2023-06-06T05:19:03.683Z,2.40
2023-06-06T05:21:37.146Z,2.40
2023-06-06T05:24:11.337Z,2.40
2023-06-06T05:26:46.411Z,2.63
2023-06-06T05:29:20.613Z,2.30
2023-06-06T05:31:54.564Z,2.40
2023-06-06T05:34:28.712Z,2.43
2023-06-06T05:37:02.489Z,2.30
2023-06-06T05:39:37.421Z,2.47
2023-06-06T05:42:12.132Z,2.43
2023-06-06T05:44:46.716Z,2.87
2023-06-06T05:47:20.174Z,2.43
2023-06-06T05:49:53.300Z,2.45
2023-06-06T05:52:27.653Z,2.47
2023-06-06T05:55:05.649Z,3.03
2023-06-06T05:57:39.590Z,2.20
2023-06-06T06:00:17.937Z,2.13
2023-06-06T06:02:53.126Z,2.13
2023-06-06T06:05:29.496Z,2.63
2023-06-06T06:08:05.621Z,2.37
2023-06-06T06:10:40.877Z,2.50
2023-06-06T06:13:14.884Z,2.83
2023-06-06T06:15:47.874Z,2.77
2023-06-06T06:18:21.736Z,2.67
2023-06-06T06:20:55.960Z,2.63
2023-06-06T06:23:29.925Z,2.30
2023-06-06T06:26:03.841Z,2.70
2023-06-06T06:28:37.262Z,2.30
2023-06-06T06:31:11.690Z,2.60
2023-06-06T06:33:45.999Z,2.60
2023-06-06T06:36:19.873Z,2.30
2023-06-06T06:38:53.611Z,2.57
2023-06-06T06:41:28.065Z,3.33
2023-06-06T06:44:02.042Z,2.27
2023-06-06T06:46:36.325Z,2.47
2023-06-06T06:49:18.410Z,2.73
2023-06-06T06:51:53.336Z,2.73
2023-06-06T06:54:27.421Z,2.33
2023-06-06T06:57:01.237Z,2.17
2023-06-06T06:59:34.921Z,2.27
2023-06-06T07:02:10.228Z,2.30
2023-06-06T07:04:46.551Z,2.27
2023-06-06T07:07:20.136Z,2.30
2023-06-06T07:09:54.691Z,2.37
2023-06-06T07:12:28.315Z,2.23
2023-06-06T07:15:02.164Z,2.50
2023-06-06T07:17:35.667Z,2.30
2023-06-06T07:20:12.689Z,2.13
2023-06-06T07:22:46.708Z,2.13
2023-06-06T07:25:20.947Z,2.43
2023-06-06T07:27:54.989Z,2.27
2023-06-06T07:30:28.804Z,2.43
2023-06-06T07:33:02.441Z,2.50
2023-06-06T07:35:37.629Z,2.43
2023-06-06T07:38:11.036Z,2.07
2023-06-06T07:40:44.803Z,2.20
2023-06-06T07:43:18.916Z,2.10
2023-06-06T07:45:52.866Z,1.97
2023-06-06T07:48:27.027Z,2.20
2023-06-06T07:51:01.848Z,2.03
2023-06-06T07:53:35.759Z,1.83
2023-06-06T07:56:09.527Z,2.30
2023-06-06T07:58:54.120Z,2.20
2023-06-06T08:01:28.748Z,2.67
2023-06-06T08:04:02.452Z,2.00
2023-06-06T08:06:38.563Z,2.10
2023-06-06T08:09:12.003Z,1.80
2023-06-06T08:11:45.903Z,2.20
2023-06-06T08:14:20.024Z,1.90
2023-06-06T08:16:54.070Z,2.30
2023-06-06T08:19:28.466Z,1.97
2023-06-06T08:22:02.912Z,2.20
2023-06-06T08:24:36.612Z,2.13
2023-06-06T08:27:11.646Z,2.50
2023-06-06T08:29:45.801Z,2.30
2023-06-06T08:32:19.984Z,1.70
2023-06-06T08:34:53.807Z,2.53
2023-06-06T08:37:27.534Z,2.50
2023-06-06T08:40:00.865Z,2.43
2023-06-06T08:42:38.429Z,1.90
2023-06-06T08:45:14.288Z,2.00
2023-06-06T08:47:48.722Z,1.93
2023-06-06T08:50:24.782Z,2.60
2023-06-06T08:53:05.531Z,2.40
2023-06-06T08:55:40.704Z,2.57
2023-06-06T08:58:14.927Z,2.17
2023-06-06T09:00:50.959Z,2.30
2023-06-06T09:03:26.791Z,2.77
2023-06-06T09:06:01.338Z,2.10
2023-06-06T09:08:34.780Z,2.90
2023-06-06T09:11:08.725Z,2.07
2023-06-06T09:13:46.142Z,2.00
2023-06-06T09:16:22.646Z,1.90
2023-06-06T09:19:02.451Z,2.47
2023-06-06T09:21:36.903Z,2.07
2023-06-06T09:24:11.865Z,2.10
2023-06-06T09:26:45.794Z,2.03
2023-06-06T09:29:19.706Z,2.10
2023-06-06T09:31:53.627Z,2.10
2023-06-06T09:34:38.777Z,2.30
2023-06-06T09:37:18.545Z,2.20
2023-06-06T09:40:14.444Z,2.47
2023-06-06T09:42:49.521Z,2.23
2023-06-06T09:45:24.004Z,2.17
2023-06-06T09:48:02.894Z,1.80
2023-06-06T09:50:37.629Z,2.13
2023-06-06T09:53:16.098Z,2.07
2023-06-06T09:55:53.808Z,2.37
2023-06-06T09:58:34.934Z,2.40
2023-06-06T10:01:14.214Z,2.87
2023-06-06T10:03:54.194Z,2.10
2023-06-06T10:06:35.632Z,2.60
2023-06-06T10:09:09.776Z,2.57
2023-06-06T10:11:44.837Z,2.40
2023-06-06T10:14:18.462Z,2.10
2023-06-06T10:16:52.925Z,2.80
2023-06-06T10:19:29.046Z,2.60
2023-06-06T10:22:04.303Z,2.70
2023-06-06T10:24:39.950Z,2.53
2023-06-06T10:27:28.550Z,2.80
2023-06-06T10:30:09.008Z,2.43
2023-06-06T10:32:53.123Z,2.50
2023-06-06T10:35:28.234Z,3.00
2023-06-06T10:38:11.196Z,2.60
2023-06-06T10:40:56.454Z,2.57
2023-06-06T10:43:55.608Z,2.53
2023-06-06T10:46:29.272Z,2.53
2023-06-06T10:49:08.611Z,2.60
2023-06-06T10:51:45.448Z,2.97
2023-06-06T10:54:23.878Z,2.57
2023-06-06T10:57:00.637Z,2.50
2023-06-06T10:59:38.634Z,2.53
2023-06-06T11:02:36.543Z,2.80
2023-06-06T11:05:13.347Z,2.70
2023-06-06T11:07:52.082Z,2.63
2023-06-06T11:10:29.583Z,2.73
2023-06-06T11:13:29.134Z,2.80
2023-06-06T11:16:03.416Z,2.80
2023-06-06T11:18:48.347Z,3.03
2023-06-06T11:21:32.047Z,3.10
2023-06-06T11:24:07.801Z,2.90
2023-06-06T11:26:44.246Z,3.20
2023-06-06T11:29:21.129Z,2.93
2023-06-06T11:31:54.762Z,3.40
2023-06-06T11:34:33.576Z,2.53
2023-06-06T11:37:09.308Z,3.10
2023-06-06T11:39:50.555Z,3.20
2023-06-06T11:42:29.059Z,2.80
2023-06-06T11:45:03.702Z,2.70
2023-06-06T11:47:37.818Z,3.17
2023-06-06T11:50:30.896Z,3.47
2023-06-06T11:53:06.918Z,3.53
2023-06-06T11:55:41.423Z,2.90
2023-06-06T11:58:15.390Z,2.73
2023-06-06T12:00:50.791Z,3.03
2023-06-06T12:03:25.422Z,3.00
2023-06-06T12:06:07.444Z,3.40
2023-06-06T12:08:41.372Z,3.07
2023-06-06T12:11:32.846Z,3.30
2023-06-06T12:14:14.486Z,3.13
2023-06-06T12:16:49.037Z,3.23
2023-06-06T12:19:23.900Z,3.10
2023-06-06T12:21:57.754Z,3.10
2023-06-06T12:24:32.680Z,2.77
2023-06-06T12:27:07.068Z,3.07
2023-06-06T12:29:52.252Z,2.70
2023-06-06T12:32:27.891Z,3.47
2023-06-06T12:35:04.422Z,2.70
2023-06-06T12:37:43.858Z,2.90
2023-06-06T12:40:22.208Z,2.70
2023-06-06T12:42:56.974Z,2.67
2023-06-06T12:45:31.159Z,2.70
2023-06-06T12:48:05.238Z,2.70
2023-06-06T12:50:39.662Z,2.80
2023-06-06T12:53:14.324Z,2.60
2023-06-06T12:55:48.843Z,2.77
2023-06-06T12:58:23.125Z,2.30
2023-06-06T13:00:56.979Z,2.57
2023-06-06T13:03:31.430Z,2.63
2023-06-06T13:06:06.442Z,2.37
2023-06-06T13:08:39.823Z,2.57
2023-06-06T13:11:13.915Z,2.63
2023-06-06T13:13:48.749Z,2.40
2023-06-06T13:16:22.815Z,2.63
2023-06-06T13:18:57.505Z,2.40
2023-06-06T13:21:31.572Z,2.37
2023-06-06T13:24:05.691Z,2.77
2023-06-06T13:26:39.686Z,2.67
2023-06-06T13:29:14.154Z,2.87
2023-06-06T13:31:47.858Z,2.50
2023-06-06T13:34:22.067Z,2.70
2023-06-06T13:36:55.732Z,2.70
2023-06-06T13:39:29.542Z,2.70
2023-06-06T13:42:03.287Z,2.57
2023-06-06T13:44:36.980Z,2.60
2023-06-06T13:47:11.851Z,3.03
2023-06-06T13:49:45.924Z,2.73
2023-06-06T13:52:19.787Z,2.50
2023-06-06T13:54:55.629Z,2.27
2023-06-06T13:57:30.609Z,2.87
2023-06-06T14:00:06.910Z,2.70
2023-06-06T14:02:42.231Z,2.50
2023-06-06T14:05:17.651Z,2.60
2023-06-06T14:07:51.619Z,2.10
2023-06-06T14:10:24.896Z,2.87
2023-06-06T14:13:00.092Z,2.30
2023-06-06T14:15:34.269Z,2.40
2023-06-06T14:18:10.114Z,2.30
2023-06-06T14:21:00.724Z,2.10
2023-06-06T14:23:34.953Z,1.70
2023-06-06T14:26:09.018Z,2.10
2023-06-06T14:28:42.561Z,2.10
2023-06-06T14:31:16.176Z,2.03
2023-06-06T14:33:50.477Z,2.33
2023-06-06T14:36:24.901Z,1.90
2023-06-06T14:38:57.822Z,2.20
2023-06-06T14:41:31.433Z,1.93
2023-06-06T14:44:05.313Z,2.20
2023-06-06T14:46:40.310Z,2.13
2023-06-06T14:49:14.160Z,2.07
2023-06-06T14:51:48.524Z,2.03
2023-06-06T14:54:22.170Z,1.80
2023-06-06T14:56:56.365Z,2.20
2023-06-06T14:59:29.569Z,2.07
2023-06-06T15:02:04.427Z,1.70
2023-06-06T15:04:39.459Z,1.93
2023-06-06T15:07:13.314Z,2.10
2023-06-06T15:09:46.912Z,2.17
2023-06-06T15:12:20.877Z,2.20
2023-06-06T15:14:55.173Z,1.97
2023-06-06T15:17:29.289Z,2.67
2023-06-06T15:20:03.361Z,2.20
2023-06-06T15:22:37.306Z,2.10
2023-06-06T15:25:13.414Z,2.67
2023-06-06T15:27:48.050Z,2.20
2023-06-06T15:30:21.878Z,1.90
2023-06-06T15:32:55.640Z,1.90
2023-06-06T15:35:29.547Z,2.07
2023-06-06T15:38:03.999Z,2.00
2023-06-06T15:40:38.076Z,2.10
2023-06-06T15:43:12.236Z,2.00
2023-06-06T15:45:45.824Z,2.27
2023-06-06T15:48:21.022Z,2.00
2023-06-06T15:50:54.551Z,2.03
2023-06-06T15:53:27.942Z,2.37
2023-06-06T15:56:01.965Z,1.90
2023-06-06T15:58:35.754Z,2.10
2023-06-06T16:01:09.509Z,2.03
2023-06-06T16:03:43.262Z,2.20
2023-06-06T16:06:17.176Z,2.60
2023-06-06T16:08:50.735Z,2.30
2023-06-06T16:11:24.286Z,2.10
2023-06-06T16:13:58.668Z,1.93
2023-06-06T16:16:32.454Z,1.97
2023-06-06T16:19:07.722Z,2.33
2023-06-06T16:21:41.143Z,1.80
2023-06-06T16:24:14.941Z,2.10
2023-06-06T16:26:49.099Z,2.17
2023-06-06T16:29:23.120Z,1.97
2023-06-06T16:31:57.072Z,2.00
2023-06-06T16:34:31.301Z,2.50
2023-06-06T16:37:05.718Z,1.80
2023-06-06T16:39:39.091Z,2.10
2023-06-06T16:42:14.880Z,2.10
2023-06-06T16:44:48.966Z,2.10
2023-06-06T16:47:23.410Z,2.43
2023-06-06T16:49:57.066Z,2.60
2023-06-06T16:52:31.074Z,2.73
2023-06-06T16:55:05.893Z,2.17
2023-06-06T16:57:40.083Z,2.30
2023-06-06T17:00:16.340Z,2.27
2023-06-06T17:02:50.610Z,2.33
2023-06-06T17:05:25.092Z,2.33
2023-06-06T17:07:59.599Z,1.90
2023-06-06T17:10:33.157Z,2.17
2023-06-06T17:13:06.954Z,2.10
2023-06-06T17:15:42.901Z,2.00
2023-06-06T17:18:16.498Z,2.43
2023-06-06T17:20:50.704Z,1.70
2023-06-06T17:23:25.080Z,2.07
2023-06-06T17:25:59.330Z,2.00
2023-06-06T17:28:32.860Z,2.10
2023-06-06T17:31:07.507Z,2.37
2023-06-06T17:33:41.632Z,2.33
2023-06-06T17:36:15.437Z,1.90
2023-06-06T17:38:49.294Z,2.00
2023-06-06T17:41:22.710Z,1.93
2023-06-06T17:43:56.731Z,1.90
2023-06-06T17:46:31.638Z,2.33
2023-06-06T17:49:09.167Z,2.57
2023-06-06T17:51:43.740Z,2.57
2023-06-06T17:54:17.039Z,2.37
2023-06-06T17:56:51.495Z,2.10
2023-06-06T17:59:25.473Z,2.30
2023-06-06T18:01:59.085Z,2.50
2023-06-06T18:04:33.419Z,2.83
2023-06-06T18:07:08.580Z,2.70
2023-06-06T18:09:43.057Z,2.40
2023-06-06T18:12:17.821Z,2.23
2023-06-06T18:14:53.322Z,2.50
2023-06-06T18:17:27.117Z,2.33
2023-06-06T18:20:01.643Z,2.40
2023-06-06T18:22:36.063Z,2.73
2023-06-06T18:25:12.797Z,2.40
2023-06-06T18:27:46.683Z,2.93
2023-06-06T18:30:21.614Z,2.10
2023-06-06T18:32:55.574Z,2.30
2023-06-06T18:35:29.241Z,2.13
2023-06-06T18:38:05.247Z,2.07
2023-06-06T18:40:38.898Z,2.30
2023-06-06T18:43:16.829Z,2.23
2023-06-06T18:45:51.387Z,2.40
2023-06-06T18:48:25.951Z,2.43
2023-06-06T18:50:59.720Z,2.30
2023-06-06T18:53:32.834Z,2.47
2023-06-06T18:56:06.793Z,2.17
2023-06-06T18:58:41.254Z,2.20
2023-06-06T19:01:15.494Z,2.30
2023-06-06T19:03:49.477Z,2.40
2023-06-06T19:06:23.653Z,2.10
2023-06-06T19:08:56.896Z,2.53
2023-06-06T19:11:30.211Z,2.03
2023-06-06T19:14:03.498Z,2.10
2023-06-06T19:16:37.824Z,2.27
2023-06-06T19:19:13.120Z,2.30
2023-06-06T19:21:47.302Z,2.40
2023-06-06T19:24:20.754Z,2.00
2023-06-06T19:26:54.349Z,2.77
2023-06-06T19:29:27.891Z,2.70
2023-06-06T19:32:01.767Z,2.00
2023-06-06T19:34:35.650Z,2.10
2023-06-06T19:37:12.683Z,2.73
2023-06-06T19:39:50.094Z,2.30
2023-06-06T19:42:23.550Z,1.83
2023-06-06T19:44:57.351Z,2.07
2023-06-06T19:47:31.463Z,3.03
2023-06-06T19:50:06.297Z,1.90
2023-06-06T19:52:40.333Z,1.93
2023-06-06T19:55:15.215Z,2.47
2023-06-06T19:57:49.791Z,2.23
2023-06-06T20:00:25.605Z,2.30
2023-06-06T20:02:59.223Z,2.43
2023-06-06T20:05:32.965Z,2.10
2023-06-06T20:08:08.353Z,2.60
2023-06-06T20:10:41.962Z,2.10
2023-06-06T20:13:14.051Z,2.37
2023-06-06T20:15:48.749Z,2.20
2023-06-06T20:18:22.981Z,2.10
2023-06-06T20:20:57.236Z,2.47
2023-06-06T20:23:32.013Z,2.43
2023-06-06T20:26:07.908Z,2.93
2023-06-06T20:28:41.174Z,2.20
2023-06-06T20:31:14.381Z,2.80
2023-06-06T20:33:48.263Z,2.60
2023-06-06T20:36:21.884Z,2.53
2023-06-06T20:38:56.013Z,2.60
2023-06-06T20:41:29.920Z,2.20
2023-06-06T20:44:04.106Z,2.40
2023-06-06T20:46:38.250Z,2.27
2023-06-06T20:49:12.612Z,2.43
2023-06-06T20:51:46.463Z,2.57
2023-06-06T20:54:19.477Z,2.20
2023-06-06T20:56:53.095Z,2.73
2023-06-06T20:59:27.982Z,2.50
2023-06-06T21:02:02.230Z,3.30
2023-06-06T21:04:35.736Z,2.50
2023-06-06T21:07:10.078Z,2.37
2023-06-06T21:09:43.486Z,3.03
2023-06-06T21:12:17.499Z,2.60
2023-06-06T21:14:51.356Z,2.07
2023-06-06T21:17:26.254Z,2.57
2023-06-06T21:20:01.603Z,2.40
2023-06-06T21:22:35.631Z,2.30
2023-06-06T21:25:11.573Z,2.10
2023-06-06T21:27:45.865Z,2.70
2023-06-06T21:30:19.556Z,2.77
2023-06-06T21:32:53.336Z,2.63
2023-06-06T21:35:28.485Z,3.00
2023-06-06T21:38:02.251Z,3.00
2023-06-06T21:40:36.523Z,2.40
2023-06-06T21:43:10.202Z,2.47
2023-06-06T21:45:44.975Z,2.97
2023-06-06T21:48:19.979Z,2.57
2023-06-06T21:50:54.207Z,2.33
2023-06-06T21:53:28.098Z,2.93
2023-06-06T21:56:02.122Z,2.70
2023-06-06T21:58:36.465Z,2.60
2023-06-06T22:01:12.506Z,2.53
2023-06-06T22:03:46.054Z,2.70
2023-06-06T22:06:20.356Z,3.13
2023-06-06T22:08:54.965Z,2.80
2023-06-06T22:11:28.266Z,2.93
2023-06-06T22:14:03.212Z,2.40
2023-06-06T22:16:36.172Z,2.97
2023-06-06T22:19:12.096Z,2.73
2023-06-06T22:21:45.431Z,2.60
2023-06-06T22:24:18.617Z,2.80
2023-06-06T22:26:54.714Z,3.10
2023-06-06T22:29:28.032Z,2.77
2023-06-06T22:32:02.169Z,2.60
2023-06-06T22:34:36.210Z,3.17
2023-06-06T22:37:10.466Z,2.70
2023-06-06T22:39:43.579Z,2.80
2023-06-06T22:42:17.383Z,2.37
2023-06-06T22:44:51.680Z,2.90
2023-06-06T22:47:25.775Z,2.70
2023-06-06T22:49:59.582Z,2.90
2023-06-06T22:52:33.553Z,2.70
2023-06-06T22:55:08.794Z,2.83
2023-06-06T22:57:42.365Z,2.90
2023-06-06T23:00:20.142Z,2.77
2023-06-06T23:02:53.467Z,3.03
2023-06-06T23:05:28.595Z,2.70
2023-06-06T23:08:03.255Z,2.77
2023-06-06T23:10:37.317Z,2.47
2023-06-06T23:13:10.544Z,2.90
2023-06-06T23:15:45.645Z,2.60
2023-06-06T23:18:20.286Z,2.67
2023-06-06T23:20:54.076Z,3.07
2023-06-06T23:23:27.491Z,2.90
2023-06-06T23:26:01.565Z,2.77
2023-06-06T23:28:34.827Z,3.13
2023-06-06T23:31:08.525Z,2.70
2023-06-06T23:33:42.707Z,3.03
2023-06-06T23:36:17.077Z,2.93
2023-06-06T23:38:50.437Z,2.70
2023-06-06T23:41:23.609Z,2.83
2023-06-06T23:43:57.243Z,3.03
2023-06-06T23:46:31.842Z,2.60
2023-06-06T23:49:05.254Z,2.80
2023-06-06T23:51:38.939Z,3.03
2023-06-06T23:54:13.068Z,3.30
2023-06-06T23:56:47.223Z,2.30
2023-06-06T23:59:21.125Z,2.70
